createdAt,value
2018-07-30T00:00:52.755Z,7.77
2018-07-30T00:03:20.921Z,7.60
2018-07-30T00:05:49.429Z,7.23
2018-07-30T00:08:17.954Z,7.93
2018-07-30T00:10:46.450Z,8.03
2018-07-30T00:13:14.952Z,7.63
2018-07-30T00:15:43.458Z,7.60
2018-07-30T00:18:11.951Z,7.70
2018-07-30T00:20:40.504Z,7.67
2018-07-30T00:23:09.007Z,7.57
2018-07-30T00:25:37.527Z,7.63
2018-07-30T00:28:06.455Z,8.07
2018-07-30T00:30:34.955Z,8.03
2018-07-30T00:33:03.444Z,7.97
2018-07-30T00:35:31.940Z,7.70
2018-07-30T00:38:00.610Z,7.77
2018-07-30T00:40:29.110Z,7.47
2018-07-30T00:42:57.607Z,7.50
2018-07-30T00:45:26.096Z,7.57
2018-07-30T00:47:54.588Z,7.67
2018-07-30T00:50:23.091Z,7.83
2018-07-30T00:52:51.596Z,7.13
2018-07-30T00:55:20.111Z,7.43
2018-07-30T00:57:48.612Z,7.17
2018-07-30T01:00:17.119Z,7.50
2018-07-30T01:02:45.616Z,7.70
2018-07-30T01:05:14.108Z,7.30
2018-07-30T01:07:42.666Z,7.80
2018-07-30T01:10:11.115Z,7.60
2018-07-30T01:12:39.619Z,7.30
2018-07-30T01:15:08.124Z,8.07
2018-07-30T01:17:36.617Z,7.70
2018-07-30T01:20:05.127Z,7.87
2018-07-30T01:22:33.621Z,7.77
2018-07-30T01:25:02.136Z,7.87
2018-07-30T01:27:30.641Z,8.10
2018-07-30T01:29:59.127Z,7.53
2018-07-30T01:32:27.622Z,7.83
2018-07-30T01:34:56.122Z,7.87
2018-07-30T01:37:24.627Z,7.97
2018-07-30T01:39:53.648Z,7.93
2018-07-30T01:42:22.136Z,8.57
2018-07-30T01:44:50.630Z,7.70
2018-07-30T01:47:19.119Z,8.00
2018-07-30T01:49:47.617Z,8.17
2018-07-30T01:52:16.164Z,7.83
2018-07-30T01:54:44.634Z,7.63
2018-07-30T01:57:13.132Z,7.80
2018-07-30T01:59:41.631Z,7.53
2018-07-30T02:02:10.415Z,7.53
2018-07-30T02:04:38.911Z,8.20
2018-07-30T02:07:07.420Z,7.43
2018-07-30T02:09:35.605Z,7.87
2018-07-30T02:12:04.110Z,7.50
2018-07-30T02:14:33.256Z,7.03
2018-07-30T02:17:01.419Z,7.90
2018-07-30T02:19:30.239Z,7.70
2018-07-30T02:21:58.727Z,7.50
2018-07-30T02:24:27.218Z,8.10
2018-07-30T02:26:55.715Z,7.50
2018-07-30T02:29:24.228Z,7.93
2018-07-30T02:31:52.727Z,7.33
2018-07-30T02:34:21.253Z,7.47
2018-07-30T02:36:50.179Z,7.60
2018-07-30T02:39:18.692Z,7.87
2018-07-30T02:41:47.183Z,7.43
2018-07-30T02:44:15.703Z,7.83
2018-07-30T02:46:44.212Z,7.97
2018-07-30T02:49:12.784Z,7.20
2018-07-30T02:51:41.278Z,7.40
2018-07-30T02:54:10.303Z,7.53
2018-07-30T02:56:38.458Z,7.30
2018-07-30T02:59:06.965Z,7.87
2018-07-30T03:01:35.485Z,7.80
2018-07-30T03:04:04.015Z,8.07
2018-07-30T03:06:32.527Z,8.30
2018-07-30T03:09:01.016Z,7.53
2018-07-30T03:11:29.519Z,8.07
2018-07-30T03:13:58.013Z,7.50
2018-07-30T03:16:26.520Z,8.03
2018-07-30T03:18:55.044Z,7.37
2018-07-30T03:21:23.552Z,7.63
2018-07-30T03:23:52.064Z,8.03
2018-07-30T03:26:20.555Z,8.17
2018-07-30T03:28:49.134Z,8.03
2018-07-30T03:31:17.572Z,7.97
2018-07-30T03:33:46.087Z,7.33
2018-07-30T03:36:14.592Z,7.63
2018-07-30T03:38:43.260Z,7.67
2018-07-30T03:41:12.151Z,7.70
2018-07-30T03:43:40.850Z,7.50
2018-07-30T03:46:09.351Z,7.97
2018-07-30T03:48:37.864Z,7.30
2018-07-30T03:51:06.367Z,8.23
2018-07-30T03:53:34.867Z,7.43
2018-07-30T03:56:03.378Z,7.93
2018-07-30T03:58:31.872Z,8.00
2018-07-30T04:01:00.387Z,8.00
2018-07-30T04:03:28.882Z,7.67
2018-07-30T04:05:57.092Z,8.30
2018-07-30T04:08:25.570Z,8.10
2018-07-30T04:10:54.074Z,7.63
2018-07-30T04:13:22.579Z,7.90
2018-07-30T04:15:51.087Z,7.70
2018-07-30T04:18:19.374Z,7.77
2018-07-30T04:20:48.251Z,7.90
2018-07-30T04:23:16.743Z,7.77
2018-07-30T04:25:45.230Z,7.27
2018-07-30T04:28:13.731Z,7.90
2018-07-30T04:30:42.266Z,7.63
2018-07-30T04:33:10.734Z,7.97
2018-07-30T04:35:39.235Z,7.80
2018-07-30T04:38:07.735Z,7.33
2018-07-30T04:40:36.239Z,7.27
2018-07-30T04:43:04.747Z,7.87
2018-07-30T04:45:33.243Z,7.90
2018-07-30T04:48:01.751Z,7.40
2018-07-30T04:50:30.255Z,7.97
2018-07-30T04:52:58.746Z,8.03
2018-07-30T04:55:27.239Z,7.60
2018-07-30T04:57:55.728Z,7.60
2018-07-30T05:00:24.252Z,8.03
2018-07-30T05:02:52.755Z,8.27
2018-07-30T05:05:21.243Z,8.07
2018-07-30T05:07:49.736Z,8.43
2018-07-30T05:10:18.531Z,7.50
2018-07-30T05:12:47.055Z,7.70
2018-07-30T05:15:15.548Z,8.17
2018-07-30T05:17:43.713Z,7.33
2018-07-30T05:20:12.226Z,8.13
2018-07-30T05:22:40.727Z,7.90
2018-07-30T05:25:09.803Z,8.63
2018-07-30T05:27:38.323Z,7.80
2018-07-30T05:30:07.040Z,6.93
2018-07-30T05:32:35.563Z,8.17
2018-07-30T05:35:04.092Z,7.87
2018-07-30T05:37:32.590Z,7.90
2018-07-30T05:40:01.084Z,8.30
2018-07-30T05:42:29.851Z,8.13
2018-07-30T05:44:58.016Z,7.83
2018-07-30T05:47:26.607Z,7.50
2018-07-30T05:49:54.772Z,8.03
2018-07-30T05:52:23.263Z,8.60
2018-07-30T05:54:52.012Z,8.13
2018-07-30T05:57:20.516Z,7.10
2018-07-30T05:59:49.071Z,7.80
2018-07-30T06:02:17.535Z,8.00
2018-07-30T06:04:46.052Z,7.87
2018-07-30T06:07:14.555Z,7.87
2018-07-30T06:09:43.627Z,8.47
2018-07-30T06:12:12.061Z,8.47
2018-07-30T06:14:40.574Z,8.03
2018-07-30T06:17:09.075Z,8.60
2018-07-30T06:19:37.575Z,8.43
2018-07-30T06:22:06.075Z,7.97
2018-07-30T06:24:34.567Z,7.77
2018-07-30T06:27:03.085Z,7.70
2018-07-30T06:29:31.607Z,8.47
2018-07-30T06:32:00.100Z,8.07
2018-07-30T06:34:28.595Z,8.33
2018-07-30T06:36:57.095Z,8.37
2018-07-30T06:39:25.619Z,7.87
2018-07-30T06:41:53.790Z,8.40
2018-07-30T06:44:22.308Z,8.80
2018-07-30T06:46:50.803Z,7.77
2018-07-30T06:49:19.309Z,8.57
2018-07-30T06:51:47.799Z,8.70
2018-07-30T06:54:16.301Z,7.90
2018-07-30T06:56:45.136Z,8.67
2018-07-30T06:59:13.656Z,8.40
2018-07-30T07:01:42.172Z,8.13
2018-07-30T07:04:10.671Z,7.77
2018-07-30T07:06:39.172Z,8.10
2018-07-30T07:09:09.418Z,8.50
2018-07-30T07:11:38.348Z,18.97
2018-07-30T07:14:07.227Z,46.03
2018-07-30T07:16:36.248Z,29.50
2018-07-30T07:19:04.751Z,25.57
2018-07-30T07:21:33.265Z,18.40
2018-07-30T07:24:01.879Z,21.53
2018-07-30T07:26:30.392Z,21.40
2018-07-30T07:28:58.899Z,24.50
2018-07-30T07:31:27.404Z,23.13
2018-07-30T07:33:55.940Z,19.63
2018-07-30T07:36:24.448Z,19.33
2018-07-30T07:38:52.952Z,16.73
2018-07-30T07:41:21.460Z,15.67
2018-07-30T07:43:49.969Z,15.10
2018-07-30T07:46:18.483Z,13.93
2018-07-30T07:48:46.985Z,12.73
2018-07-30T07:51:15.592Z,13.25
2018-07-30T07:53:44.016Z,12.57
2018-07-30T07:56:12.519Z,12.33
2018-07-30T07:58:41.022Z,11.40
2018-07-30T08:01:09.529Z,11.13
2018-07-30T08:03:38.068Z,10.57
2018-07-30T08:06:06.583Z,10.33
2018-07-30T08:08:35.118Z,10.57
2018-07-30T08:11:03.652Z,10.20
2018-07-30T08:13:32.159Z,10.03
2018-07-30T08:16:00.667Z,9.30
2018-07-30T08:18:29.284Z,8.83
2018-07-30T08:20:57.791Z,8.90
2018-07-30T08:23:26.292Z,8.60
2018-07-30T08:25:54.795Z,8.05
2018-07-30T08:28:22.966Z,8.13
2018-07-30T08:30:51.451Z,7.90
2018-07-30T08:33:19.970Z,7.83
2018-07-30T08:35:48.484Z,7.67
2018-07-30T08:38:17.311Z,8.03
2018-07-30T08:40:45.627Z,8.43
2018-07-30T08:43:14.128Z,8.10
2018-07-30T08:45:42.645Z,8.30
2018-07-30T08:48:11.428Z,7.90
2018-07-30T08:50:39.723Z,7.97
2018-07-30T08:53:08.217Z,7.80
2018-07-30T08:55:36.711Z,7.67
2018-07-30T08:58:05.227Z,7.33
2018-07-30T09:00:33.733Z,7.60
2018-07-30T09:03:02.238Z,7.10
2018-07-30T09:05:31.032Z,7.87
2018-07-30T09:07:59.539Z,7.43
2018-07-30T09:10:28.035Z,7.97
2018-07-30T09:12:56.589Z,7.97
2018-07-30T09:15:25.052Z,7.83
2018-07-30T09:17:53.552Z,7.83
2018-07-30T09:20:22.073Z,8.23
2018-07-30T09:22:50.598Z,8.47
2018-07-30T09:25:19.096Z,7.97
2018-07-30T09:27:47.619Z,8.37
2018-07-30T09:30:16.148Z,8.47
2018-07-30T09:32:44.728Z,8.30
2018-07-30T09:35:13.171Z,8.43
2018-07-30T09:37:41.719Z,9.07
2018-07-30T09:40:10.217Z,8.50
2018-07-30T09:42:39.199Z,8.53
2018-07-30T09:45:07.983Z,8.17
2018-07-30T09:47:36.496Z,8.37
2018-07-30T09:50:05.046Z,8.23
2018-07-30T09:52:33.873Z,8.40
2018-07-30T09:55:02.562Z,8.40
2018-07-30T09:57:31.076Z,8.20
2018-07-30T09:59:59.567Z,7.93
2018-07-30T10:02:28.075Z,8.17
2018-07-30T10:04:56.585Z,7.90
2018-07-30T10:07:25.379Z,7.53
2018-07-30T10:09:53.899Z,7.60
2018-07-30T10:12:22.407Z,7.87
2018-07-30T10:14:50.919Z,7.83
2018-07-30T10:17:19.442Z,7.27
2018-07-30T10:19:47.955Z,7.50
2018-07-30T10:22:16.459Z,8.07
2018-07-30T10:24:44.956Z,7.27
2018-07-30T10:27:13.463Z,7.13
2018-07-30T10:29:41.959Z,7.70
2018-07-30T10:32:10.484Z,7.13
2018-07-30T10:34:39.003Z,6.97
2018-07-30T10:37:07.571Z,6.83
2018-07-30T10:39:36.108Z,6.93
2018-07-30T10:42:04.607Z,7.60
2018-07-30T10:44:33.151Z,8.07
2018-07-30T10:47:02.263Z,6.87
2018-07-30T10:49:30.995Z,7.13
2018-07-30T10:51:59.563Z,7.00
2018-07-30T10:54:28.066Z,7.30
2018-07-30T10:56:56.600Z,7.37
2018-07-30T10:59:25.315Z,6.87
2018-07-30T11:01:53.482Z,7.03
2018-07-30T11:04:22.375Z,7.27
2018-07-30T11:06:50.549Z,6.97
2018-07-30T11:09:19.043Z,7.30
2018-07-30T11:11:47.559Z,6.97
2018-07-30T11:14:16.059Z,6.53
2018-07-30T11:16:44.632Z,7.03
2018-07-30T11:19:13.126Z,7.50
2018-07-30T11:21:41.722Z,7.10
2018-07-30T11:24:10.159Z,7.10
2018-07-30T11:26:38.655Z,7.53
2018-07-30T11:29:07.176Z,7.20
2018-07-30T11:31:35.680Z,8.30
2018-07-30T11:34:04.171Z,8.37
2018-07-30T11:36:32.674Z,7.83
2018-07-30T11:39:01.179Z,7.73
2018-07-30T11:41:29.687Z,7.97
2018-07-30T11:43:58.185Z,8.27
2018-07-30T11:46:26.696Z,7.50
2018-07-30T11:48:55.197Z,7.77
2018-07-30T11:51:23.703Z,7.87
2018-07-30T11:53:52.219Z,7.87
2018-07-30T11:56:20.983Z,8.20
2018-07-30T11:58:49.484Z,7.77
2018-07-30T12:01:18.311Z,8.47
2018-07-30T12:03:46.848Z,7.87
2018-07-30T12:06:15.352Z,7.60
2018-07-30T12:08:44.029Z,8.10
2018-07-30T12:11:12.521Z,7.87
2018-07-30T12:13:41.033Z,8.23
2018-07-30T12:16:09.539Z,7.77
2018-07-30T12:18:38.033Z,7.70
2018-07-30T12:21:06.551Z,7.30
2018-07-30T12:23:35.043Z,7.53
2018-07-30T12:26:03.563Z,7.87
2018-07-30T12:28:32.084Z,7.63
2018-07-30T12:31:00.827Z,7.90
2018-07-30T12:33:29.324Z,7.40
2018-07-30T12:35:57.831Z,8.70
2018-07-30T12:38:26.331Z,7.70
2018-07-30T12:40:54.823Z,8.30
2018-07-30T12:43:23.331Z,7.83
2018-07-30T12:45:51.845Z,7.70
2018-07-30T12:48:20.341Z,8.60
2018-07-30T12:50:48.855Z,8.27
2018-07-30T12:53:17.363Z,8.20
2018-07-30T12:55:45.880Z,8.20
2018-07-30T12:58:14.402Z,7.57
2018-07-30T13:00:42.895Z,8.03
2018-07-30T13:03:11.468Z,7.80
2018-07-30T13:05:39.907Z,8.23
2018-07-30T13:08:08.448Z,7.83
2018-07-30T13:10:36.939Z,7.77
2018-07-30T13:13:05.452Z,8.00
2018-07-30T13:15:33.975Z,7.70
2018-07-30T13:18:02.751Z,7.80
2018-07-30T13:20:31.248Z,8.07
2018-07-30T13:22:59.774Z,7.70
2018-07-30T13:25:28.276Z,7.77
2018-07-30T13:27:56.775Z,7.83
2018-07-30T13:30:25.283Z,7.83
2018-07-30T13:32:53.779Z,7.27
2018-07-30T13:35:22.280Z,7.87
2018-07-30T13:37:50.794Z,7.80
2018-07-30T13:40:19.307Z,7.73
2018-07-30T13:42:47.795Z,7.83
2018-07-30T13:45:16.302Z,7.57
2018-07-30T13:47:45.104Z,7.73
2018-07-30T13:50:13.614Z,7.73
2018-07-30T13:52:42.551Z,7.50
2018-07-30T13:55:11.056Z,7.03
2018-07-30T13:57:39.555Z,7.10
2018-07-30T14:00:09.783Z,7.77
2018-07-30T14:02:38.283Z,7.50
2018-07-30T14:05:07.487Z,7.83
2018-07-30T14:07:35.649Z,6.97
2018-07-30T14:10:04.090Z,7.90
2018-07-30T14:12:32.887Z,7.53
2018-07-30T14:15:01.445Z,7.57
2018-07-30T14:17:29.955Z,7.17
2018-07-30T14:19:58.489Z,7.60
2018-07-30T14:22:26.993Z,7.27
2018-07-30T14:24:55.710Z,7.43
2018-07-30T14:27:24.207Z,7.23
2018-07-30T14:29:52.719Z,7.60
2018-07-30T14:32:21.221Z,7.37
2018-07-30T14:34:49.715Z,7.47
2018-07-30T14:37:18.208Z,7.53
2018-07-30T14:39:46.943Z,7.87
2018-07-30T14:42:15.118Z,7.20
2018-07-30T14:44:43.616Z,7.47
2018-07-30T14:47:12.387Z,7.27
2018-07-30T14:49:40.674Z,7.53
2018-07-30T14:52:09.192Z,7.50
2018-07-30T14:54:37.691Z,7.40
2018-07-30T14:57:06.195Z,7.47
2018-07-30T14:59:34.753Z,7.97
2018-07-30T15:02:03.215Z,7.90
2018-07-30T15:04:31.719Z,7.53
2018-07-30T15:07:00.228Z,7.67
2018-07-30T15:09:28.740Z,7.90
2018-07-30T15:11:57.243Z,7.70
2018-07-30T15:14:25.742Z,7.50
2018-07-30T15:16:54.242Z,7.47
2018-07-30T15:19:22.798Z,7.73
2018-07-30T15:21:51.588Z,7.77
2018-07-30T15:24:20.390Z,7.53
2018-07-30T15:26:48.900Z,8.03
2018-07-30T15:29:17.081Z,8.53
2018-07-30T15:31:45.583Z,7.67
2018-07-30T15:34:14.087Z,8.03
2018-07-30T15:36:42.939Z,7.70
2018-07-30T15:39:12.035Z,7.97
2018-07-30T15:41:40.927Z,7.67
2018-07-30T15:44:09.443Z,8.10
2018-07-30T15:46:38.126Z,8.10
2018-07-30T15:49:06.757Z,8.70
2018-07-30T15:51:35.273Z,7.87
2018-07-30T15:54:03.765Z,7.83
2018-07-30T15:56:32.254Z,8.00
2018-07-30T15:59:00.772Z,8.63
2018-07-30T16:01:29.291Z,8.03
2018-07-30T16:03:57.792Z,7.90
2018-07-30T16:06:26.295Z,8.03
2018-07-30T16:08:54.810Z,9.00
2018-07-30T16:11:23.306Z,7.93
2018-07-30T16:13:51.801Z,8.23
2018-07-30T16:16:20.296Z,8.83
2018-07-30T16:18:48.798Z,7.63
2018-07-30T16:21:17.303Z,7.90
2018-07-30T16:23:45.804Z,8.13
2018-07-30T16:26:14.344Z,7.70
2018-07-30T16:28:42.839Z,7.83
2018-07-30T16:31:11.366Z,8.33
2018-07-30T16:33:39.876Z,7.80
2018-07-30T16:36:08.431Z,7.97
2018-07-30T16:38:36.922Z,8.17
2018-07-30T16:41:05.427Z,8.23
2018-07-30T16:43:33.930Z,8.10
2018-07-30T16:46:02.443Z,8.43
2018-07-30T16:48:30.963Z,7.60
2018-07-30T16:50:59.474Z,7.93
2018-07-30T16:53:28.019Z,8.23
2018-07-30T16:55:56.546Z,8.43
2018-07-30T16:58:25.043Z,8.97
2018-07-30T17:00:53.214Z,8.80
2018-07-30T17:03:21.703Z,8.30
2018-07-30T17:05:50.220Z,8.40
2018-07-30T17:08:18.732Z,8.00
2018-07-30T17:10:47.239Z,8.80
2018-07-30T17:13:15.752Z,8.67
2018-07-30T17:15:44.252Z,8.40
2018-07-30T17:18:13.306Z,8.60
2018-07-30T17:20:41.811Z,9.00
2018-07-30T17:23:10.352Z,8.40
2018-07-30T17:25:38.837Z,8.40
2018-07-30T17:28:07.344Z,9.13
2018-07-30T17:30:35.835Z,9.43
2018-07-30T17:33:04.349Z,9.70
2018-07-30T17:35:32.863Z,9.77
2018-07-30T17:38:01.402Z,9.30
2018-07-30T17:40:29.919Z,9.70
2018-07-30T17:42:58.428Z,9.17
2018-07-30T17:45:27.853Z,10.67
2018-07-30T17:47:56.363Z,10.80
2018-07-30T17:50:24.886Z,10.70
2018-07-30T17:52:53.407Z,10.83
2018-07-30T17:55:21.913Z,10.77
2018-07-30T17:57:50.429Z,10.47
2018-07-30T18:00:19.283Z,11.10
2018-07-30T18:02:48.098Z,11.30
2018-07-30T18:05:18.934Z,10.37
2018-07-30T18:07:48.746Z,11.20
2018-07-30T18:10:17.261Z,11.00
2018-07-30T18:12:46.212Z,9.77
2018-07-30T18:15:14.739Z,10.00
2018-07-30T18:17:43.251Z,10.00
2018-07-30T18:20:11.763Z,11.87
2018-07-30T18:22:40.291Z,13.37
2018-07-30T18:25:08.800Z,10.93
2018-07-30T18:27:37.319Z,11.10
2018-07-30T18:30:06.766Z,10.97
2018-07-30T18:32:35.283Z,10.40
2018-07-30T18:35:04.101Z,11.57
2018-07-30T18:37:32.619Z,10.67
2018-07-30T18:40:01.167Z,10.20
2018-07-30T18:42:30.131Z,10.30
2018-07-30T18:44:58.632Z,10.47
2018-07-30T18:47:27.140Z,9.97
2018-07-30T18:49:55.643Z,9.87
2018-07-30T18:52:24.144Z,9.33
2018-07-30T18:54:52.651Z,10.63
2018-07-30T18:57:21.169Z,11.07
2018-07-30T18:59:49.669Z,9.40
2018-07-30T19:02:18.167Z,9.53
2018-07-30T19:04:46.699Z,10.43
2018-07-30T19:07:15.201Z,10.20
2018-07-30T19:09:43.703Z,10.13
2018-07-30T19:12:12.211Z,9.97
2018-07-30T19:14:40.389Z,9.77
2018-07-30T19:17:08.889Z,10.17
2018-07-30T19:19:37.395Z,10.40
2018-07-30T19:22:06.015Z,10.60
2018-07-30T19:24:34.523Z,10.33
2018-07-30T19:27:03.038Z,10.47
2018-07-30T19:29:31.536Z,10.83
2018-07-30T19:32:00.062Z,10.67
2018-07-30T19:34:28.568Z,11.10
2018-07-30T19:36:57.072Z,10.43
2018-07-30T19:39:25.575Z,11.20
2018-07-30T19:41:54.091Z,10.37
2018-07-30T19:44:22.638Z,10.33
2018-07-30T19:46:51.127Z,10.50
2018-07-30T19:49:19.634Z,10.40
2018-07-30T19:51:48.152Z,10.53
2018-07-30T19:54:16.658Z,10.30
2018-07-30T19:56:45.180Z,10.67
2018-07-30T19:59:13.680Z,10.13
2018-07-30T20:01:42.237Z,10.73
2018-07-30T20:04:10.704Z,9.93
2018-07-30T20:06:39.223Z,10.33
2018-07-30T20:09:10.443Z,10.70
2018-07-30T20:11:38.960Z,10.60
2018-07-30T20:14:07.474Z,10.07
2018-07-30T20:16:36.313Z,10.10
2018-07-30T20:19:05.175Z,10.50
2018-07-30T20:21:33.691Z,10.23
2018-07-30T20:24:02.332Z,10.17
2018-07-30T20:26:31.180Z,10.20
2018-07-30T20:28:59.687Z,9.70
2018-07-30T20:31:28.196Z,9.70
2018-07-30T20:33:57.906Z,9.77
2018-07-30T20:36:26.454Z,9.97
2018-07-30T20:38:55.286Z,9.20
2018-07-30T20:41:24.572Z,9.33
2018-07-30T20:43:53.575Z,10.17
2018-07-30T20:46:21.889Z,9.17
2018-07-30T20:48:50.627Z,8.40
2018-07-30T20:51:19.128Z,9.13
2018-07-30T20:53:47.623Z,9.83
2018-07-30T20:56:16.115Z,8.40
2018-07-30T20:58:44.622Z,8.93
2018-07-30T21:01:13.131Z,9.17
2018-07-30T21:03:41.630Z,9.03
2018-07-30T21:06:10.128Z,9.47
2018-07-30T21:08:38.627Z,9.57
2018-07-30T21:11:07.127Z,8.63
2018-07-30T21:13:35.611Z,8.93
2018-07-30T21:16:04.323Z,8.67
2018-07-30T21:18:32.506Z,9.23
2018-07-30T21:21:00.998Z,8.40
2018-07-30T21:23:29.537Z,9.03
2018-07-30T21:25:58.026Z,8.83
2018-07-30T21:28:26.534Z,8.73
2018-07-30T21:30:54.721Z,8.80
2018-07-30T21:33:23.223Z,8.90
2018-07-30T21:35:51.727Z,8.80
2018-07-30T21:38:20.245Z,8.23
2018-07-30T21:40:48.751Z,8.40
2018-07-30T21:43:17.251Z,8.20
2018-07-30T21:45:45.742Z,8.27
2018-07-30T21:48:14.243Z,7.93
2018-07-30T21:50:42.735Z,8.23
2018-07-30T21:53:11.230Z,7.70
2018-07-30T21:55:39.402Z,6.93
2018-07-30T21:58:07.887Z,7.93
2018-07-30T22:00:36.396Z,7.90
2018-07-30T22:03:05.352Z,8.00
2018-07-30T22:05:33.878Z,7.47
2018-07-30T22:08:02.379Z,6.97
2018-07-30T22:10:30.875Z,8.13
2018-07-30T22:12:59.382Z,6.93
2018-07-30T22:15:27.882Z,6.87
2018-07-30T22:17:56.383Z,7.10
2018-07-30T22:20:24.915Z,7.33
2018-07-30T22:22:53.399Z,7.83
2018-07-30T22:25:21.919Z,7.53
2018-07-30T22:27:50.411Z,7.70
2018-07-30T22:30:18.906Z,7.00
2018-07-30T22:32:47.395Z,7.60
2018-07-30T22:35:15.899Z,7.67
2018-07-30T22:37:44.395Z,6.97
2018-07-30T22:40:12.895Z,7.03
2018-07-30T22:42:41.411Z,7.23
2018-07-30T22:45:09.910Z,7.17
2018-07-30T22:47:38.423Z,7.23
2018-07-30T22:50:06.916Z,7.07
2018-07-30T22:52:35.451Z,7.57
2018-07-30T22:55:03.980Z,7.03
2018-07-30T22:57:32.699Z,6.73
2018-07-30T23:00:01.203Z,6.57
2018-07-30T23:02:29.695Z,6.80
2018-07-30T23:04:58.192Z,7.10
2018-07-30T23:07:26.357Z,7.20
2018-07-30T23:09:55.155Z,6.80
2018-07-30T23:12:23.884Z,6.77
2018-07-30T23:14:52.380Z,7.10
2018-07-30T23:17:20.872Z,7.17
2018-07-30T23:19:49.369Z,6.87
2018-07-30T23:22:17.880Z,6.80
2018-07-30T23:24:46.375Z,6.87
2018-07-30T23:27:14.873Z,6.93
2018-07-30T23:29:43.512Z,7.20
2018-07-30T23:32:11.742Z,6.77
2018-07-30T23:34:40.258Z,6.93
2018-07-30T23:37:08.909Z,6.57
2018-07-30T23:39:37.295Z,7.07
2018-07-30T23:42:06.303Z,7.13
2018-07-30T23:44:34.800Z,7.03
2018-07-30T23:47:03.307Z,7.20
2018-07-30T23:49:31.811Z,7.43
2018-07-30T23:52:00.303Z,7.03
2018-07-30T23:54:28.795Z,6.80
2018-07-30T23:56:57.296Z,7.30
2018-07-30T23:59:25.804Z,6.50
